Wangerooge, Germany

6:33 PM CEST on July 23, 2016 (GMT +0200)
W'ooge-Airport | | Change Station

Elev 6 ft 53.79 °N, 7.91 °E | Updated 3 minutes ago

Mostly Cloudy
Mostly Cloudy
65.7 °F
Feels Like 65.7 °F
N
7.0
Wind Variable Wind from North
Gusts 11.0 mph

Today
High -- | Low -- °F
--% Chance of Precip.
Yesterday
High -- | Low -- °F
Precip. -- in
Pressure 30.06 in
Visibility 6.2 miles
Clouds Few 4000 ft
Scattered Clouds 10000 ft
Mostly Cloudy 23000 ft
Dew Point 65 °F
Humidity 98%
Rainfall in
Snow Depth Not available.
5:28 AM 9:39 PM
Waning Gibbous, 84% visible
METAR ETMN 231620Z 16004KT 9999 FEW040 SCT100 BKN230 27/16 Q1018 BLU+
Pressure 30.06 in
Visibility 6.2 miles
Clouds Few 4000 ft
Scattered Clouds 10000 ft
Mostly Cloudy 23000 ft
Dew Point 65 °F
Humidity 98%
Rainfall in
Snow Depth Not available.
5:28 AM 9:39 PM
Waning Gibbous, 84% visible
METAR ETMN 231620Z 16004KT 9999 FEW040 SCT100 BKN230 27/16 Q1018 BLU+

10-Day Weather Forecast

×

Almanac

Astronomy

Jul. 23, 2016 Rise Set
Actual Time
Civil Twilight
Nautical Twilight
Astronomical Twilight
Moon
Length of Visible Light
Length of Day
Tomorrow will be .
, % of the Moon is Illuminated

Today's Extremes

Country Highs Country Lows

Community

WunderPhotos

Upload Photos

1,926,860 photos uploaded!

WunderBlog® & News

Nearby

Air Quality

  Air Quality AQ Index Pollutant
Not available.

Snow Depth

Station Depth Elevation

Earthquake Activity

City Distance Mag. Time & Date
Minimum magnitude displayed is 2.5.

Coastal Water Temperatures

Place Temperature

Stations

Nearby Weather Stations

Station Location Temp. Windchill Dew Point Humidity Wind Precip. Elev Updated Type